Grand Rapids, MI (49501)

12:11 PM EDT on April 20, 2018 (GMT -0400)
Downtown Grand Rapids | | Change Station
Active Advisory: Flood Advisory Active Notice: Flood Advisory

Elev 610 ft 42.96 °N, 85.68 °W | Updated 1 minute ago

Clear
Clear
57.0 °F
Feels Like 57.0 °F
N
0.8
Wind Variable Wind from NE

Today
High -- | Low -- °F
--% Chance of Precip.
Yesterday
High -- | Low -- °F
Precip. -- in
Pressure 30.51 in
Visibility 10.0 miles
Clouds Few 25000 ft
Dew Point 20 °F
Humidity 24%
Rainfall 0.00 in
Snow Depth Not available.
6:52 AM 8:31 PM
Waxing Crescent, 25% visible
METAR KGRR 201553Z VRB03KT 10SM FEW250 11/M06 A3050 RMK AO2 SLP332 T01111061
Pressure 30.51 in
Visibility 10.0 miles
Clouds Few 25000 ft
Dew Point 20 °F
Humidity 24%
Rainfall 0.00 in
Snow Depth Not available.
6:52 AM 8:31 PM
Waxing Crescent, 25% visible
METAR KGRR 201553Z VRB03KT 10SM FEW250 11/M06 A3050 RMK AO2 SLP332 T01111061

Get Your Daily Forecast Email!

Thanks for signing up!

Be on the lookout for a verification email in your inbox.

You'll start receiving severe weather alerts in your inbox..

×

10-Day Weather Forecast

Almanac

Astronomy

Apr. 20, 2018 Rise Set
Actual Time
Civil Twilight
Nautical Twilight
Astronomical Twilight
Moon
Length of Visible Light
Length of Day
Tomorrow will be .
, % of the Moon is Illuminated

Today's Extremes

State Highs State Lows

Community

WunderPhotos

Category 6

Welcome to Category 6. This is the collective home for Weather Underground's featured writeups by Dr. Jeff Masters (right), Bob Henson (left), Chris Burt, and other regular contributors.

Nearby

Air Quality

  Air Quality AQ Index Pollutant
Not available.

Snow Depth

Station Depth Elevation

Earthquake Activity

City Distance Mag. Time & Date
Minimum magnitude displayed is 2.5.

Coastal Water Temperatures

Place Temperature

Stations

Nearby Weather Stations

Station Location Temp. Windchill Dew Point Humidity Wind Precip. Elev Updated Type
                   

Watches & Warnings

Flood Advisory
Issued: 10:55 AM EDT Apr. 20, 2018 – National Weather Service

The flood advisory continues for
the Grand River near Comstock Park
* until Monday afternoon.
* At 07 am Friday the stage was 11.3 feet.
* Bankfull stage is 11.0 feet.
* Flood stage is 12.0 feet.
* Forecast, the river will crest near 11.4 feet by this evening.
* Impact, at 11.0 feet... river is bankfull.


Lat... Lon 4298 8572 4308 8570 4309 8557 4302 8559
      4303 8562 4297 8563




1055 am EDT Fri Apr 20 2018

The flood advisory continues for
the Grand River at Lowell
* until Sunday evening.
* Current observed data was not available. The river level was
estimated to be around 10.6 feet on Friday morning.
* Bankfull stage is 10.0 feet.
* Flood stage is 15.0 feet.
* Forecast, the river level will continue to fall.
* Impact, at 10.0 feet... river is bankfull. Expect flooding of low
lying areas adjacent to the banks.


Lat... Lon 4298 8541 4296 8534 4297 8524 4290 8521
      4289 8534 4289 8548